Latest Coastal Weather Observations for Lockhart River

IDQ60701

Issued at 1:02 am EST Monday 21 October 2019 (issued every 10 minutes, with the page automatically refreshed every 10 minutes)

About coastal observations | Map of coastal stations | Coastal observations for QLD | Marine services | Other Formats
Station Details ID: 028008 Name: LOCKHART RIVER AIRPORT Lat: -12.79 Lon: 143.30 Height: 18.5 m
Data from the previous 72 hours. | See also: Recent months at Lockhart River
Date/Time
EST
Wind Sea
Height
m
Swell Vis
km
Cloud Weather Temp
°C
Press
hPa
Rain since
9am
mm
Dir  Spd
kts
Gust
kts
Height
m
Period
s
Dir
21/01:00am CALM 0 0 - - - - 10 Partly cloudy - 21.3 1012.8 0.0
21/12:57am CALM 0 0 - - - - 10 Partly cloudy - 21.3 1012.8 0.0
21/12:30am NNE 3 5 - - - - 10 Partly cloudy - 21.4 1013.0 0.0
21/12:00am NW 4 5 - - - - 10 Cloudy - 21.0 1013.2 0.0
 
Date/Time
EST
Wind Sea
Height
m
Swell Vis
km
Cloud Weather Temp
°C
Press
hPa
Rain since
9am
mm
Dir  Spd
kts
Gust
kts
Height
m
Period
s
Dir
20/11:30pm CALM 0 0 - - - - 10 Partly cloudy - 20.9 1013.2 0.0
20/11:00pm CALM 0 0 - - - - 10 Partly cloudy - 21.2 1013.6 0.0
20/10:30pm CALM 0 0 - - - - 10 Partly cloudy - 21.6 1013.8 0.0
20/10:00pm CALM 0 0 - - - - 10 Partly cloudy - 21.6 1013.8 0.0
20/09:30pm CALM 0 0 - - - - 10 Partly cloudy - 21.6 1013.6 0.0
20/09:00pm CALM 0 0 - - - - 10 Cloudy - 21.9 1013.5 0.0
20/08:30pm E 3 4 - - - - 10 - - 22.7 1013.3 0.0
20/08:00pm E 3 5 - - - - 10 - - 24.3 1013.1 0.0
20/07:30pm E 7 9 - - - - 10 - - 24.6 1012.9 0.0
20/07:00pm ENE 4 5 - - - - 10 - - 24.8 1012.7 0.0
20/06:30pm ENE 7 10 - - - - 10 - - 25.3 1012.4 0.0
20/06:00pm ENE 7 11 - - - - 10 - - 26.1 1012.1 0.0
20/05:30pm ENE 8 11 - - - - 10 - - 26.8 1011.7 0.0
20/05:00pm ESE 9 11 - - - - 10 - - 27.7 1011.5 0.0
20/04:30pm ESE 10 16 - - - - 10 - - 28.7 1011.6 0.0
20/04:00pm E 10 15 - - - - 10 - - 28.5 1011.6 0.0
20/03:30pm E 12 16 - - - - 10 - - 28.7 1011.8 0.0
20/03:00pm E 11 16 - - - - 10 - - 28.7 1011.9 0.0
20/02:30pm E 11 16 - - - - 10 - - 29.0 1012.1 0.0
20/02:00pm E 11 19 - - - - 10 - - 29.0 1012.4 0.0
20/01:30pm E 12 17 - - - - 10 - - 28.7 1012.8 0.0
20/01:00pm ENE 10 17 - - - - 10 Partly cloudy - 29.8 1013.1 0.0
20/12:30pm ENE 10 14 - - - - 10 - - 29.1 1013.7 0.0
20/12:00pm E 11 15 - - - - 10 Cloudy - 28.8 1014.1 0.0
20/11:30am E 11 16 - - - - 10 Partly cloudy - 29.1 1014.5 0.0
20/11:00am E 10 15 - - - - 10 Partly cloudy - 28.9 1014.8 0.0
20/10:30am ESE 11 17 - - - - 10 Partly cloudy - 28.4 1014.9 0.0
20/10:00am ESE 11 15 - - - - 10 Partly cloudy - 28.1 1015.1 0.0
20/09:30am ESE 10 16 - - - - 10 Partly cloudy - 28.6 1015.4 0.0
20/09:00am ESE 11 19 - - - - 10 Cloudy - 27.8 1015.5 0.0
20/08:30am ESE 12 20 - - - - 10 Partly cloudy - 27.5 1015.6 0.0
20/08:00am ESE 11 17 - - - - 10 Partly cloudy - 26.8 1015.4 0.0
20/07:30am ESE 8 13 - - - - 10 Partly cloudy - 25.9 1015.2 0.0
20/07:00am ESE 10 13 - - - - 10 Partly cloudy - 25.2 1014.8 0.0
20/06:30am W 1 4 - - - - 10 Partly cloudy - 21.6 1014.7 0.0
20/06:00am W 3 4 - - - - 10 Cloudy - 20.8 1014.3 0.0
20/05:30am CALM 0 0 - - - - 10 Partly cloudy - 21.3 1013.9 0.0
20/05:00am SSE 3 4 - - - - 10 - - 22.4 1013.8 0.0
20/04:30am S 6 7 - - - - 10 Partly cloudy - 22.6 1013.4 0.0
20/04:00am SSW 3 6 - - - - 10 Partly cloudy - 22.8 1013.1 0.0
20/03:30am SSW 2 4 - - - - 10 Partly cloudy - 23.2 1012.9 0.0
20/03:17am S 4 5 - - - - 10 Partly cloudy - 23.7 1012.9 0.0
20/03:05am SE 5 6 - - - - 10 Partly cloudy - 24.5 1012.9 0.0
20/03:00am SE 5 7 - - - - 10 Cloudy - 24.6 1012.9 0.0
20/02:30am ESE 6 9 - - - - 10 Partly cloudy - 24.8 1013.1 0.0
20/02:00am ESE 6 11 - - - - 10 Partly cloudy - 24.7 1013.3 0.0
20/01:30am E 4 7 - - - - 10 Partly cloudy - 24.5 1013.4 0.0
20/01:00am E 6 8 - - - - 10 Partly cloudy - 24.6 1013.7 0.0
20/12:30am E 5 7 - - - - 10 Partly cloudy - 24.4 1014.0 0.0
20/12:01am E 5 7 - - - - 10 Partly cloudy - 24.2 1014.2 0.0
20/12:00am E 5 7 - - - - 10 Cloudy - 24.2 1014.2 0.0
 
Date/Time
EST
Wind Sea
Height
m
Swell Vis
km
Cloud Weather Temp
°C
Press
hPa
Rain since
9am
mm
Dir  Spd
kts
Gust
kts
Height
m
Period
s
Dir
19/11:30pm ENE 3 6 - - - - 10 Partly cloudy - 23.3 1014.6 0.0
19/11:17pm CALM 0 0 - - - - 10 Partly cloudy - 22.4 1014.7 0.0
19/11:00pm CALM 0 0 - - - - 10 Partly cloudy - 22.9 1014.7 0.0
19/10:30pm ENE 4 7 - - - - 10 Partly cloudy - 24.2 1014.8 0.0
19/10:00pm E 3 7 - - - - 10 Partly cloudy - 23.9 1014.8 0.0
19/09:30pm E 3 6 - - - - 10 Partly cloudy - 23.9 1014.7 0.0
19/09:00pm CALM 0 0 - - - - 10 Cloudy - 23.2 1014.5 0.0
19/08:30pm CALM 0 3 - - - - 10 Partly cloudy - 24.2 1014.5 0.0
19/08:00pm SE 6 7 - - - - 10 Partly cloudy - 25.3 1014.3 0.0
19/07:30pm SE 6 8 - - - - 10 Partly cloudy - 25.5 1014.3 0.0
19/07:00pm ESE 5 7 - - - - 10 Partly cloudy - 25.7 1013.9 0.0
19/06:30pm ESE 7 11 - - - - 10 - - 25.8 1013.6 0.0
19/06:00pm ESE 7 11 - - - - 10 - - 26.3 1013.5 0.0
19/05:30pm E 10 14 - - - - 10 - - 26.8 1013.3 0.0
19/05:00pm E 8 15 - - - - 10 Partly cloudy - 27.3 1013.2 0.0
19/04:30pm E 10 15 - - - - 10 - - 27.9 1013.0 0.0
19/04:00pm E 11 16 - - - - 10 - - 28.4 1012.9 0.0
19/03:30pm E 11 15 - - - - 10 - - 29.1 1012.9 0.0
19/03:00pm E 11 18 - - - - 10 - - 29.4 1013.3 0.0
19/02:30pm ESE 12 17 - - - - 10 - - 29.8 1013.4 0.0
19/02:00pm SE 14 21 - - - - 10 - - 29.8 1013.7 0.0
19/01:30pm ESE 13 21 - - - - 10 - - 29.6 1014.1 0.0
19/01:00pm SE 13 21 - - - - 10 Partly cloudy - 29.9 1014.8 0.0
19/12:30pm ESE 14 23 - - - - 10 - - 29.9 1015.3 0.0
19/12:00pm SE 15 22 - - - - 10 Cloudy - 30.2 1015.6 0.0
19/11:30am ESE 14 18 - - - - 10 Partly cloudy - 29.1 1015.9 0.0
19/11:00am ESE 13 19 - - - - 10 Partly cloudy - 29.3 1016.2 0.0
19/10:30am ESE 12 18 - - - - 10 Partly cloudy - 28.5 1016.2 0.0
19/10:00am SE 13 18 - - - - 10 Partly cloudy - 27.7 1016.4 0.0
19/09:30am ESE 12 17 - - - - 10 Partly cloudy - 27.7 1016.5 0.0
19/09:00am ESE 13 17 - - - - 10 Cloudy - 26.9 1016.5 0.0
19/08:30am SE 11 15 - - - - 10 Partly cloudy - 26.1 1016.5 0.0
19/08:00am S 7 10 - - - - 10 Partly cloudy - 25.0 1016.2 0.0
19/07:30am S 5 6 - - - - 10 Partly cloudy - 22.7 1015.9 0.0
19/07:00am CALM 0 0 - - - - 10 Partly cloudy - 21.0 1015.2 0.0
19/06:30am CALM 0 0 - - - - 10 Partly cloudy - 19.9 1014.7 0.0
19/06:00am CALM 0 0 - - - - 10 Cloudy - 19.3 1014.4 0.0
19/05:30am CALM 0 0 - - - - 10 Partly cloudy - 19.2 1013.8 0.0
19/05:00am CALM 0 0 - - - - 10 Partly cloudy - 19.3 1013.7 0.0
19/04:30am CALM 0 0 - - - - 10 Partly cloudy - 19.6 1013.5 0.0
19/04:00am CALM 0 0 - - - - 10 Partly cloudy - 19.8 1013.4 0.0
19/03:30am CALM 0 0 - - - - 10 - - 20.1 1013.1 0.0
19/03:00am CALM 0 0 - - - - 10 Cloudy - 20.0 1013.4 0.0
19/02:30am CALM 0 0 - - - - 10 Partly cloudy - 20.7 1013.3 0.0
19/02:12am CALM 0 0 - - - - 10 Partly cloudy - 21.1 1013.6 0.0
19/02:00am CALM 0 0 - - - - 10 Partly cloudy - 20.1 1013.6 0.0
19/01:52am CALM 0 0 - - - - 10 Partly cloudy - 20.0 1013.6 0.0
19/01:30am CALM 0 0 - - - - 10 Partly cloudy - 20.0 1013.7 0.0
19/01:00am CALM 0 0 - - - - 10 - - 20.1 1013.8 0.0
19/12:30am CALM 0 0 - - - - 10 - - 20.8 1014.3 0.0
19/12:00am S 3 4 - - - - 10 Cloudy - 22.2 1014.7 0.0
 
Date/Time
EST
Wind Sea
Height
m
Swell Vis
km
Cloud Weather Temp
°C
Press
hPa
Rain since
9am
mm
Dir  Spd
kts
Gust
kts
Height
m
Period
s
Dir
18/11:30pm S 3 4 - - - - 10 - - 22.6 1015.1 0.0
18/11:00pm SSW 4 6 - - - - 10 Partly cloudy - 23.1 1015.2 0.0
18/10:30pm SSE 4 6 - - - - 10 - - 23.9 1015.3 0.0
18/10:00pm SSE 7 9 - - - - 10 Partly cloudy - 24.7 1015.0 0.0
18/09:30pm SE 5 7 - - - - 10 Partly cloudy - 25.0 1015.0 0.0
18/09:00pm ESE 5 8 - - - - 10 Cloudy - 25.3 1014.9 0.0
18/08:30pm SSE 5 6 - - - - 10 Partly cloudy - 25.2 1014.8 0.0
18/08:00pm SSE 7 9 - - - - 10 Partly cloudy - 25.3 1014.7 0.0
18/07:30pm SE 6 9 - - - - 10 Partly cloudy - 25.8 1014.4 0.0
18/07:00pm ESE 8 11 - - - - 10 Partly cloudy - 26.0 1014.3 0.0
18/06:30pm ESE 7 10 - - - - 10 Partly cloudy - 26.0 1014.2 0.0
18/06:00pm ESE 8 13 - - - - 10 Cloudy - 26.4 1013.8 0.0
18/05:30pm E 10 16 - - - - 10 Partly cloudy - 26.9 1013.4 0.0
18/05:00pm E 12 16 - - - - 10 Partly cloudy - 27.1 1013.1 0.0
18/04:30pm ESE 13 19 - - - - 10 Partly cloudy - 27.7 1013.0 0.0
18/04:00pm E 13 18 - - - - 10 Partly cloudy - 27.6 1012.8 0.0
18/03:30pm E 12 17 - - - - 10 Partly cloudy - 27.3 1012.7 0.0
18/03:00pm E 11 17 - - - - 10 Cloudy - 27.6 1012.8 0.0
18/02:30pm ESE 13 18 - - - - 10 Partly cloudy - 28.2 1013.1 0.0
18/02:00pm ESE 14 20 - - - - 10 Partly cloudy - 28.0 1013.2 0.0
18/01:30pm ESE 13 21 - - - - 10 Partly cloudy - 28.5 1013.5 0.0
18/01:00pm ESE 14 22 - - - - 10 Partly cloudy - 28.7 1013.8 0.0
18/12:30pm ESE 14 21 - - - - 10 Partly cloudy - 29.2 1014.0 0.0
18/12:00pm ESE 12 19 - - - - 10 Cloudy - 28.9 1014.5 0.0
18/11:30am ESE 13 20 - - - - 10 Partly cloudy - 28.1 1014.9 0.0
18/11:00am ESE 13 22 - - - - 10 Partly cloudy - 28.6 1015.2 0.0
18/10:30am E 12 18 - - - - 10 Partly cloudy - 28.5 1015.3 0.0
18/10:00am ESE 12 18 - - - - 10 Partly cloudy - 28.2 1015.6 0.0
18/09:30am E 10 15 - - - - 10 Partly cloudy - 27.1 1015.5 0.0
18/09:00am E 12 19 - - - - 10 Cloudy - 27.7 1015.3 0.0
18/08:30am E 10 14 - - - - 10 Partly cloudy - 26.5 1015.3 0.0
18/08:00am ESE 10 16 - - - - 10 Partly cloudy - 26.7 1015.1 0.0
18/07:30am ESE 11 15 - - - - 10 Partly cloudy - 26.1 1014.8 0.0
18/07:00am ESE 9 14 - - - - 10 Partly cloudy - 25.3 1014.5 0.0
18/06:30am ESE 7 9 - - - - 10 Partly cloudy - 24.5 1014.3 0.0
18/06:00am SE 5 7 - - - - 10 Cloudy - 22.7 1014.1 0.0
18/05:30am SE 2 6 - - - - 10 Partly cloudy - 21.1 1014.0 0.0
18/05:00am CALM 0 1 - - - - 10 Partly cloudy - 21.1 1013.9 0.0
18/04:51am CALM 0 0 - - - - 10 Partly cloudy - 21.0 1013.7 0.0
18/04:38am CALM 0 0 - - - - 10 Partly cloudy - 21.1 1013.5 0.0
18/04:30am CALM 0 0 - - - - 10 Partly cloudy - 21.1 1013.4 0.0
18/04:00am CALM 0 0 - - - - 10 Partly cloudy - 21.0 1013.1 0.0
18/03:30am CALM 0 0 - - - - 10 Partly cloudy - 21.3 1013.0 0.0
18/03:00am CALM 0 0 - - - - 10 Cloudy - 21.8 1013.3 0.0
18/02:30am SSE 2 4 - - - - 10 - - 22.7 1013.4 0.0
18/02:00am SE 5 7 - - - - 10 Partly cloudy - 24.3 1013.7 0.0
18/01:30am SE 6 8 - - - - 10 Partly cloudy - 24.3 1014.2 0.0

Other formats

Comma delimited format used in spreadsheet applications
http://www.bom.gov.au/fwo/IDQ60701/IDQ60701.94186.axf

JavaScript Object Notation format (JSON) in row-major order
http://www.bom.gov.au/fwo/IDQ60701/IDQ60701.94186.json

Data quality

Most of these data are generated automatically and are frequently updated. Quality checks on data are not normally performed. It is possible for incorrect values to appear. Refer to information at About Latest Weather Observations and please check the disclaimer before using these data.